首页
METAR-TAF:

METAR-TAF

机场 :

Dawson Community Airport

格伦代夫, 蒙大拿州, 美国

纬度: 47-08N, 经度: 104-48W, 海拔: 749米

当前天气观测

该预报发布于9分钟前的19:56 UTC
风速21节,风向西转西北,有时为30节阵风
温度 16°C
湿度 27%
气压 1006 hPa
能見度: 16.1公里
散云层高于8000英尺

METAR: KGDV 071956Z AUTO 29021G30KT 10SM SCT080 16/M03 A2970 RMK AO2 PK WND 29030/1956 SLP062 T01561033

时间: 14:05 (20:05 UTC)

预报

该预报发布于2小时和34分钟前的17:31 UTC
预报有效从07日的 18点(UTC)到 08日的 18点(UTC)
风速19节,风向西,有时为27节阵风
能見度: 10公里
少量云层高于18000英尺
从 08日的 0000点(UTC)
风速16节,风向西北
能見度: 10公里
散云层高于8000英尺
从 08日的 0600点(UTC)
风速14节,风向北转西北,有时为22节阵风
能見度: 10公里
多云层高于5000英尺
附近有阵雨
从 08日的 1400点(UTC)
风速16节,风向西转西北
能見度: 10公里
少量云层高于9000英尺

TAF: KGDV 071731Z 0718/0818 27019G27KT P6SM FEW180 FM080000 31016KT P6SM SCT080 FM080600 34014G22KT P6SM VCSH BKN050 FM081400 30016KT P6SM FEW090

超过4000个机场的气象观测和天气预报(METAR&TAF报告)。

可查询的气象台以黄色和红色小点在地图上表示。

将鼠标移到小点上方,可查看气象台名称。

然后点击查看天气观测和预报。

如需切换地图:点击带黑十字的绿色按钮放大地图;点击带横线的绿色按钮缩小地图;或者点击绿色箭头查看邻近地区的地图。


METAR-TAF: